createdAt,value
2022-11-21T00:04:52.754Z,100445.28
2022-11-21T00:09:57.777Z,100462.38
2022-11-21T00:15:01.537Z,100471.06
2022-11-21T00:20:05.860Z,100470.25
2022-11-21T00:25:11.473Z,100465.81
2022-11-21T00:30:15.990Z,100457.97
2022-11-21T00:35:20.016Z,100468.84
2022-11-21T00:40:25.058Z,100469.19
2022-11-21T00:45:28.916Z,100470.38
2022-11-21T00:50:32.588Z,100475.13
2022-11-21T00:55:38.022Z,100479.94
2022-11-21T01:00:41.851Z,100475.50
2022-11-21T01:05:45.602Z,100482.84
2022-11-21T01:10:50.592Z,100476.56
2022-11-21T01:15:54.340Z,100479.25
2022-11-21T01:21:00.781Z,100476.66
2022-11-21T01:26:07.811Z,100473.03
2022-11-21T01:31:13.447Z,100463.31
2022-11-21T01:36:19.570Z,100463.66
2022-11-21T01:41:26.838Z,100451.38
2022-11-21T01:46:30.527Z,100451.69
2022-11-21T01:51:37.889Z,100456.56
2022-11-21T01:56:47.933Z,100464.25
2022-11-21T02:01:54.963Z,100472.03
2022-11-21T02:06:59.524Z,100477.28
2022-11-21T02:12:09.545Z,100483.88
2022-11-21T02:17:13.256Z,100479.19
2022-11-21T02:22:28.987Z,100474.75
2022-11-21T02:27:34.320Z,100471.31
2022-11-21T02:32:39.894Z,100483.31
2022-11-21T02:37:45.775Z,100491.22
2022-11-21T02:43:00.542Z,100487.84
2022-11-21T02:48:04.699Z,100482.81
2022-11-21T02:53:10.698Z,100479.56
2022-11-21T02:58:15.740Z,100465.06
2022-11-21T03:03:19.439Z,100470.00
2022-11-21T03:08:23.132Z,100477.31
2022-11-21T03:13:28.160Z,100480.50
2022-11-21T03:18:31.901Z,100472.72
2022-11-21T03:23:35.726Z,100465.09
2022-11-21T03:28:42.776Z,100459.22
2022-11-21T03:33:46.517Z,100458.31
2022-11-21T03:38:50.330Z,100460.19
2022-11-21T03:43:55.364Z,100465.47
2022-11-21T03:48:59.402Z,100476.91
2022-11-21T03:54:03.704Z,100469.38
2022-11-21T03:59:08.811Z,100455.06
2022-11-21T04:04:12.581Z,100450.94
2022-11-21T04:09:16.302Z,100447.56
2022-11-21T04:14:21.285Z,100450.94
2022-11-21T04:19:24.969Z,100444.09
2022-11-21T04:24:28.989Z,100442.16
2022-11-21T04:29:34.189Z,100440.56
2022-11-21T04:34:39.682Z,100438.97
2022-11-21T04:39:43.354Z,100439.09
2022-11-21T04:44:48.398Z,100445.16
2022-11-21T04:49:52.107Z,100441.66
2022-11-21T04:54:55.816Z,100434.03
2022-11-21T05:00:00.898Z,100423.78
2022-11-21T05:05:04.881Z,100412.03
2022-11-21T05:10:09.433Z,100398.50
2022-11-21T05:15:14.477Z,100406.19
2022-11-21T05:20:19.069Z,100400.84
2022-11-21T05:25:22.925Z,100399.00
2022-11-21T05:30:27.965Z,100396.81
2022-11-21T05:35:31.795Z,100399.53
2022-11-21T05:40:35.495Z,100390.34
2022-11-21T05:45:40.520Z,100386.19
2022-11-21T05:50:47.878Z,100386.19
2022-11-21T05:55:51.563Z,100382.31
2022-11-21T06:01:00.300Z,100380.53
2022-11-21T06:06:07.418Z,100378.75
2022-11-21T06:11:13.254Z,100377.72
2022-11-21T06:16:20.450Z,100372.66
2022-11-21T06:21:25.881Z,100372.44
2022-11-21T06:26:29.731Z,100375.94
2022-11-21T06:31:34.775Z,100365.06
2022-11-21T06:36:38.422Z,100360.53
2022-11-21T06:41:42.243Z,100358.53
2022-11-21T06:46:51.278Z,100361.53
2022-11-21T06:51:55.505Z,100351.38
2022-11-21T06:56:59.368Z,100345.00
2022-11-21T07:02:04.495Z,100343.97
2022-11-21T07:07:08.482Z,100341.91
2022-11-21T07:12:32.209Z,100344.16
2022-11-21T07:17:37.282Z,100346.25
2022-11-21T07:22:41.095Z,100343.50
2022-11-21T07:27:44.766Z,100341.84
2022-11-21T07:32:56.313Z,100347.84
2022-11-21T07:38:00.306Z,100342.56
2022-11-21T07:43:09.584Z,100348.34
2022-11-21T07:48:16.129Z,100339.09
2022-11-21T07:53:19.828Z,100335.09
2022-11-21T07:58:23.643Z,100325.94
2022-11-21T08:03:28.632Z,100325.13
2022-11-21T08:08:32.882Z,100328.75
2022-11-21T08:13:36.964Z,100324.41
2022-11-21T08:18:42.084Z,100306.47
2022-11-21T08:23:45.781Z,100295.94
2022-11-21T08:28:49.493Z,100291.91
2022-11-21T08:33:58.191Z,100275.91
2022-11-21T08:39:02.152Z,100271.41
2022-11-21T08:44:09.859Z,100261.31
2022-11-21T08:49:18.792Z,100267.66
2022-11-21T08:54:24.219Z,100265.09
2022-11-21T08:59:28.042Z,100256.78
2022-11-21T09:04:33.182Z,100246.12
2022-11-21T09:09:36.880Z,100230.94
2022-11-21T09:14:58.394Z,100223.09
2022-11-21T09:20:03.468Z,100212.47
2022-11-21T09:25:07.641Z,100222.41
2022-11-21T09:30:12.443Z,100212.63
2022-11-21T09:35:17.595Z,100199.47
2022-11-21T09:40:21.566Z,100184.00
2022-11-21T09:45:31.340Z,100177.28
2022-11-21T09:50:39.055Z,100173.88
2022-11-21T09:55:47.358Z,100162.50
2022-11-21T10:00:52.928Z,100165.47
2022-11-21T10:06:03.219Z,100158.34
2022-11-21T10:11:20.312Z,100145.91
2022-11-21T10:16:39.206Z,100139.56
2022-11-21T10:22:24.322Z,100113.06
2022-11-21T10:27:33.502Z,100104.81
2022-11-21T10:32:40.236Z,100094.25
2022-11-21T10:37:50.988Z,100087.66
2022-11-21T10:43:21.315Z,100083.59
2022-11-21T10:48:25.003Z,100073.50
2022-11-21T10:53:48.055Z,100066.47
2022-11-21T10:58:54.041Z,100054.34
2022-11-21T11:04:40.610Z,100052.09
2022-11-21T11:09:46.990Z,100038.44
2022-11-21T11:14:53.548Z,100035.88
2022-11-21T11:20:06.924Z,100026.87
2022-11-21T11:25:11.962Z,100006.75
2022-11-21T11:30:17.518Z,99992.09
2022-11-21T11:35:24.183Z,99971.53
2022-11-21T11:40:33.991Z,99961.34
2022-11-21T11:46:11.536Z,99953.88
2022-11-21T11:51:22.937Z,99930.31
2022-11-21T11:56:30.874Z,99913.72
2022-11-21T12:01:40.574Z,99899.97
2022-11-21T12:08:06.000Z,99895.97
2022-11-21T12:12:19.664Z,99880.88
2022-11-21T12:17:36.334Z,99867.38
2022-11-21T12:22:40.162Z,99855.72
2022-11-21T12:27:50.301Z,99845.59
2022-11-21T12:33:03.568Z,99831.06
2022-11-21T12:38:27.117Z,99823.34
2022-11-21T12:43:40.954Z,99812.69
2022-11-21T12:49:13.407Z,99803.06
2022-11-21T12:54:34.307Z,99791.56
2022-11-21T12:59:49.548Z,99762.44
2022-11-21T13:04:57.119Z,99740.78
2022-11-21T13:10:04.115Z,99728.50
2022-11-21T13:15:20.596Z,99723.47
2022-11-21T13:20:32.815Z,99728.16
2022-11-21T13:25:39.244Z,99714.03
2022-11-21T13:30:49.666Z,99713.34
2022-11-21T13:36:07.047Z,99698.06
2022-11-21T13:41:28.466Z,99683.44
2022-11-21T13:47:02.290Z,99679.09
2022-11-21T13:52:09.602Z,99665.06
2022-11-21T13:57:27.957Z,99655.97
2022-11-21T14:03:21.020Z,99650.00
2022-11-21T14:08:27.004Z,99647.00
2022-11-21T14:13:33.963Z,99634.09
2022-11-21T14:18:40.326Z,99627.41
2022-11-21T14:23:45.387Z,99619.19
2022-11-21T14:28:49.315Z,99610.25
2022-11-21T14:33:58.871Z,99597.00
2022-11-21T14:44:32.916Z,99573.56
2022-11-21T14:49:38.052Z,99571.06
2022-11-21T14:55:22.479Z,99552.31
2022-11-21T15:06:01.739Z,99538.50
2022-11-21T15:11:06.219Z,99519.63
2022-11-21T15:16:10.079Z,99513.59
2022-11-21T15:21:17.432Z,99495.53
2022-11-21T15:26:30.625Z,99484.22
2022-11-21T15:31:34.433Z,99465.28
2022-11-21T15:36:39.490Z,99459.94
2022-11-21T15:41:43.401Z,99451.66
2022-11-21T15:46:47.588Z,99448.53
2022-11-21T15:52:07.111Z,99452.16
2022-11-21T15:57:11.640Z,99443.41
2022-11-21T16:02:16.119Z,99431.84
2022-11-21T16:07:21.231Z,99444.81
2022-11-21T16:12:24.998Z,99425.22
2022-11-21T16:17:28.724Z,99413.63
2022-11-21T16:22:34.164Z,99406.69
2022-11-21T16:27:37.923Z,99394.97
2022-11-21T16:32:41.649Z,99375.94
2022-11-21T16:37:47.271Z,99358.22
2022-11-21T16:42:51.016Z,99350.50
2022-11-21T16:47:54.708Z,99361.56
2022-11-21T16:52:59.824Z,99355.47
2022-11-21T16:58:03.617Z,99338.16
2022-11-21T17:03:07.366Z,99320.03
2022-11-21T17:08:12.448Z,99304.81
2022-11-21T17:13:16.123Z,99302.16
2022-11-21T17:18:19.921Z,99290.97
2022-11-21T17:23:25.165Z,99285.78
2022-11-21T17:28:29.645Z,99279.75
2022-11-21T17:33:33.458Z,99269.28
2022-11-21T17:38:39.843Z,99257.34
2022-11-21T17:43:44.156Z,99248.50
2022-11-21T17:48:54.638Z,99244.50
2022-11-21T17:54:01.660Z,99246.87
2022-11-21T17:59:06.484Z,99236.59
2022-11-21T18:04:14.814Z,99237.44
2022-11-21T18:09:20.539Z,99232.44
2022-11-21T18:14:24.263Z,99205.88
2022-11-21T18:19:28.116Z,99199.00
2022-11-21T18:24:33.331Z,99188.75
2022-11-21T18:29:37.452Z,99199.09
2022-11-21T18:34:41.315Z,99191.94
2022-11-21T18:39:46.323Z,99204.66
2022-11-21T18:44:51.790Z,99191.63
2022-11-21T18:49:55.539Z,99190.53
2022-11-21T18:55:00.718Z,99185.47
2022-11-21T19:00:06.140Z,99186.91
2022-11-21T19:05:10.135Z,99173.13
2022-11-21T19:10:41.365Z,99166.28
2022-11-21T19:15:39.197Z,99155.00
2022-11-21T19:20:43.061Z,99159.31
2022-11-21T19:25:48.074Z,99157.56
2022-11-21T19:30:51.894Z,99148.59
2022-11-21T19:35:55.574Z,99146.97
2022-11-21T19:41:17.117Z,99141.69
2022-11-21T19:46:22.464Z,99145.25
2022-11-21T19:51:30.093Z,99137.47
2022-11-21T19:56:35.988Z,99131.41
2022-11-21T20:01:40.264Z,99115.91
2022-11-21T20:06:46.071Z,99088.44
2022-11-21T20:11:52.761Z,99097.94
2022-11-21T20:16:56.746Z,99070.66
2022-11-21T20:22:00.516Z,99074.59
2022-11-21T20:27:05.718Z,99062.66
2022-11-21T20:32:09.589Z,99052.41
2022-11-21T20:37:13.336Z,99055.66
2022-11-21T20:42:18.525Z,99043.78
2022-11-21T20:47:22.245Z,99038.72
2022-11-21T20:57:50.987Z,99038.72
2022-11-21T21:02:54.701Z,99039.47
2022-11-21T21:07:58.466Z,99029.09
2022-11-21T21:13:03.550Z,99025.66
2022-11-21T21:18:07.271Z,99023.94
2022-11-21T21:23:10.949Z,99033.56
2022-11-21T21:28:16.024Z,99030.72
2022-11-21T21:33:19.994Z,99023.91
2022-11-21T21:38:23.699Z,99017.87
2022-11-21T21:43:28.915Z,99031.41
2022-11-21T21:48:32.724Z,99027.13
2022-11-21T21:53:37.656Z,99015.94
2022-11-21T21:58:44.155Z,99012.38
2022-11-21T22:03:48.425Z,99015.94
2022-11-21T22:08:52.376Z,99018.44
2022-11-21T22:13:59.486Z,99015.16
2022-11-21T22:19:03.270Z,99019.56
2022-11-21T22:24:28.704Z,99031.50
2022-11-21T22:29:33.943Z,99034.28
2022-11-21T22:34:37.742Z,99023.94
2022-11-21T22:39:41.483Z,99025.72
2022-11-21T22:44:46.588Z,99033.41
2022-11-21T22:49:50.426Z,99034.06
2022-11-21T22:54:54.205Z,99035.13
2022-11-21T22:59:59.270Z,99032.72
2022-11-21T23:05:03.201Z,99023.22
2022-11-21T23:10:08.120Z,99022.38
2022-11-21T23:15:13.345Z,99020.06
2022-11-21T23:20:17.728Z,99023.50
2022-11-21T23:25:21.419Z,99022.72
2022-11-21T23:30:26.567Z,99023.44
2022-11-21T23:35:30.302Z,99026.09
2022-11-21T23:40:34.018Z,99019.44
2022-11-21T23:45:39.033Z,99015.78
2022-11-21T23:50:42.722Z,99014.16
2022-11-21T23:55:46.824Z,99004.72
